createdAt,value
2023-08-23T00:02:35.708Z,20.16
2023-08-23T00:05:39.214Z,20.11
2023-08-23T00:08:42.250Z,20.02
2023-08-23T00:11:45.694Z,19.96
2023-08-23T00:14:49.026Z,19.95
2023-08-23T00:17:52.437Z,19.94
2023-08-23T00:20:55.568Z,19.90
2023-08-23T00:23:59.069Z,19.95
2023-08-23T00:27:02.180Z,19.91
2023-08-23T00:30:06.514Z,19.87
2023-08-23T00:33:09.988Z,19.87
2023-08-23T00:36:14.148Z,19.94
2023-08-23T00:39:17.441Z,19.90
2023-08-23T00:42:20.783Z,19.90
2023-08-23T00:45:24.062Z,19.86
2023-08-23T00:48:27.523Z,19.89
2023-08-23T00:51:31.337Z,19.86
2023-08-23T00:54:34.979Z,19.76
2023-08-23T00:57:38.348Z,19.73
2023-08-23T01:00:42.771Z,19.67
2023-08-23T01:03:45.876Z,19.63
2023-08-23T01:06:59.306Z,19.58
2023-08-23T01:10:11.815Z,19.57
2023-08-23T01:13:23.500Z,19.59
2023-08-23T01:16:26.978Z,19.52
2023-08-23T01:19:51.493Z,19.52
2023-08-23T01:22:56.865Z,19.54
2023-08-23T01:26:02.516Z,19.53
2023-08-23T01:29:05.864Z,19.45
2023-08-23T01:32:15.688Z,19.48
2023-08-23T01:35:25.470Z,19.45
2023-08-23T01:38:31.409Z,19.44
2023-08-23T01:41:36.052Z,19.47
2023-08-23T01:44:44.504Z,19.44
2023-08-23T01:47:48.070Z,19.45
2023-08-23T01:50:53.549Z,19.36
2023-08-23T01:53:56.769Z,19.29
2023-08-23T01:57:00.593Z,19.26
2023-08-23T02:00:04.786Z,19.25
2023-08-23T02:03:17.352Z,19.23
2023-08-23T02:06:20.881Z,19.17
2023-08-23T02:09:23.966Z,19.11
2023-08-23T02:12:27.250Z,19.09
2023-08-23T02:15:30.359Z,18.99
2023-08-23T02:18:33.692Z,19.03
2023-08-23T02:21:37.447Z,18.98
2023-08-23T02:24:40.839Z,18.96
2023-08-23T02:27:44.657Z,18.94
2023-08-23T02:30:49.339Z,18.88
2023-08-23T02:33:52.742Z,18.87
2023-08-23T02:36:56.241Z,18.81
2023-08-23T02:39:59.552Z,18.72
2023-08-23T02:43:03.268Z,18.79
2023-08-23T02:46:08.174Z,18.76
2023-08-23T02:49:11.635Z,18.71
2023-08-23T02:52:14.791Z,18.70
2023-08-23T02:55:18.243Z,18.74
2023-08-23T02:58:21.388Z,18.70
2023-08-23T03:01:24.798Z,18.68
2023-08-23T03:04:28.008Z,18.65
2023-08-23T03:07:31.503Z,18.68
2023-08-23T03:10:36.538Z,18.70
2023-08-23T03:13:41.422Z,18.71
2023-08-23T03:16:44.522Z,18.65
2023-08-23T03:19:49.311Z,18.61
2023-08-23T03:22:52.353Z,18.59
2023-08-23T03:25:55.946Z,18.63
2023-08-23T03:28:59.154Z,18.64
2023-08-23T03:32:02.630Z,18.62
2023-08-23T03:35:06.078Z,18.63
2023-08-23T03:38:09.457Z,18.65
2023-08-23T03:41:16.106Z,18.67
2023-08-23T03:44:19.635Z,18.71
2023-08-23T03:47:23.597Z,18.66
2023-08-23T03:50:27.064Z,18.59
2023-08-23T03:53:30.624Z,18.57
2023-08-23T03:56:34.148Z,18.53
2023-08-23T03:59:37.368Z,18.51
2023-08-23T04:02:43.932Z,18.48
2023-08-23T04:05:47.912Z,18.54
2023-08-23T04:08:52.133Z,18.53
2023-08-23T04:11:55.635Z,18.53
2023-08-23T04:14:59.204Z,18.51
2023-08-23T04:18:03.202Z,18.53
2023-08-23T04:21:06.425Z,18.63
2023-08-23T04:24:09.749Z,18.65
2023-08-23T04:27:12.761Z,18.65
2023-08-23T04:30:16.218Z,18.69
2023-08-23T04:33:20.288Z,18.77
2023-08-23T04:36:24.000Z,18.82
2023-08-23T04:39:28.227Z,18.89
2023-08-23T04:42:34.185Z,18.99
2023-08-23T04:45:41.065Z,19.10
2023-08-23T04:48:44.688Z,19.24
2023-08-23T04:51:47.860Z,19.33
2023-08-23T04:54:52.090Z,19.47
2023-08-23T04:57:55.275Z,19.43
2023-08-23T05:01:05.729Z,19.61
2023-08-23T05:04:09.188Z,19.72
2023-08-23T05:07:12.681Z,19.85
2023-08-23T05:10:15.960Z,20.01
2023-08-23T05:13:20.629Z,20.13
2023-08-23T05:16:25.376Z,20.27
2023-08-23T05:19:28.830Z,20.51
2023-08-23T05:22:32.185Z,20.62
2023-08-23T05:25:35.617Z,20.70
2023-08-23T05:28:38.709Z,20.81
2023-08-23T05:31:42.177Z,21.05
2023-08-23T05:34:46.449Z,21.45
2023-08-23T05:37:50.078Z,21.93
2023-08-23T05:40:54.628Z,22.48
2023-08-23T05:43:58.061Z,22.85
2023-08-23T05:47:01.216Z,23.26
2023-08-23T05:50:05.294Z,23.42
2023-08-23T05:53:11.527Z,23.55
2023-08-23T05:56:20.828Z,23.75
2023-08-23T05:59:23.890Z,23.94
2023-08-23T06:02:27.535Z,24.11
2023-08-23T06:05:30.881Z,24.42
2023-08-23T06:08:34.047Z,24.55
2023-08-23T06:11:37.520Z,24.90
2023-08-23T06:14:41.309Z,25.01
2023-08-23T06:17:44.733Z,25.09
2023-08-23T06:20:50.493Z,25.46
2023-08-23T06:23:53.990Z,25.59
2023-08-23T06:26:57.181Z,26.12
2023-08-23T06:30:01.100Z,26.62
2023-08-23T06:33:07.046Z,26.77
2023-08-23T06:36:10.710Z,27.07
2023-08-23T06:39:27.718Z,27.41
2023-08-23T06:42:36.488Z,27.64
2023-08-23T06:45:39.939Z,27.87
2023-08-23T06:48:43.949Z,28.06
2023-08-23T06:51:49.944Z,28.33
2023-08-23T06:54:54.578Z,28.46
2023-08-23T06:57:58.301Z,28.68
2023-08-23T07:01:02.649Z,28.85
2023-08-23T07:04:07.045Z,29.22
2023-08-23T07:07:10.453Z,29.36
2023-08-23T07:10:26.875Z,29.48
2023-08-23T07:13:31.707Z,29.72
2023-08-23T07:16:34.846Z,29.87
2023-08-23T07:19:39.549Z,30.17
2023-08-23T07:22:43.246Z,30.24
2023-08-23T07:25:46.732Z,30.34
2023-08-23T07:28:49.871Z,30.54
2023-08-23T07:31:53.591Z,30.65
2023-08-23T07:34:56.672Z,30.94
2023-08-23T07:38:00.271Z,31.23
2023-08-23T07:41:04.814Z,31.34
2023-08-23T07:44:08.206Z,31.62
2023-08-23T07:47:11.499Z,31.42
2023-08-23T07:50:14.959Z,31.45
2023-08-23T07:53:19.989Z,31.54
2023-08-23T07:56:23.339Z,31.28
2023-08-23T07:59:26.606Z,31.86
2023-08-23T08:02:31.439Z,31.99
2023-08-23T08:05:35.687Z,32.25
2023-08-23T08:08:40.707Z,32.59
2023-08-23T08:11:44.267Z,32.58
2023-08-23T08:14:47.902Z,32.60
2023-08-23T08:17:52.830Z,32.98
2023-08-23T08:20:56.739Z,33.13
2023-08-23T08:24:02.987Z,32.99
2023-08-23T08:27:06.175Z,32.62
2023-08-23T08:30:10.210Z,32.89
2023-08-23T08:33:13.371Z,33.05
2023-08-23T08:36:17.279Z,33.31
2023-08-23T08:39:20.493Z,33.57
2023-08-23T08:42:24.398Z,33.84
2023-08-23T08:45:28.084Z,33.92
2023-08-23T08:48:31.424Z,33.83
2023-08-23T08:51:37.804Z,33.58
2023-08-23T08:54:43.949Z,33.69
2023-08-23T08:57:50.295Z,33.67
2023-08-23T09:00:55.605Z,33.13
2023-08-23T09:03:59.438Z,33.21
2023-08-23T09:07:02.936Z,33.76
2023-08-23T09:10:06.841Z,33.32
2023-08-23T09:13:10.287Z,33.53
2023-08-23T09:16:14.807Z,33.48
2023-08-23T09:19:18.587Z,33.85
2023-08-23T09:22:23.222Z,34.23
2023-08-23T09:25:27.856Z,34.02
2023-08-23T09:28:31.054Z,34.24
2023-08-23T09:31:35.669Z,34.18
2023-08-23T09:34:38.846Z,34.54
2023-08-23T09:37:47.513Z,34.75
2023-08-23T09:40:52.389Z,34.63
2023-08-23T09:43:58.216Z,35.30
2023-08-23T09:47:01.824Z,35.44
2023-08-23T09:50:06.669Z,34.91
2023-08-23T09:53:35.348Z,35.02
2023-08-23T09:56:44.483Z,35.00
2023-08-23T09:59:48.027Z,35.36
2023-08-23T10:02:53.667Z,35.06
2023-08-23T10:05:57.789Z,35.00
2023-08-23T10:09:01.594Z,35.50
2023-08-23T10:12:07.411Z,35.25
2023-08-23T10:15:13.798Z,35.68
2023-08-23T10:18:18.027Z,35.28
2023-08-23T10:21:21.354Z,35.43
2023-08-23T10:24:32.986Z,35.51
2023-08-23T10:27:37.558Z,35.42
2023-08-23T10:30:44.311Z,35.48
2023-08-23T10:33:57.807Z,34.86
2023-08-23T10:37:01.318Z,35.08
2023-08-23T10:40:17.247Z,34.40
2023-08-23T10:43:21.866Z,35.02
2023-08-23T10:46:33.688Z,34.84
2023-08-23T10:49:38.925Z,34.44
2023-08-23T10:52:45.456Z,34.29
2023-08-23T10:55:53.982Z,34.76
2023-08-23T10:59:00.411Z,34.95
2023-08-23T11:02:03.974Z,35.36
2023-08-23T11:05:07.757Z,35.19
2023-08-23T11:08:13.101Z,34.63
2023-08-23T11:11:17.063Z,34.38
2023-08-23T11:14:20.552Z,34.11
2023-08-23T11:17:23.771Z,34.98
2023-08-23T11:20:27.712Z,35.45
2023-08-23T11:23:30.886Z,35.51
2023-08-23T11:26:35.707Z,35.15
2023-08-23T11:29:40.422Z,35.72
2023-08-23T11:32:44.869Z,36.42
2023-08-23T11:35:47.966Z,36.75
2023-08-23T11:38:52.064Z,35.04
2023-08-23T11:41:55.251Z,34.85
2023-08-23T11:44:58.653Z,35.45
2023-08-23T11:48:01.891Z,35.36
2023-08-23T11:51:06.556Z,35.54
2023-08-23T11:54:10.100Z,36.12
2023-08-23T11:57:18.262Z,36.34
2023-08-23T12:00:22.168Z,35.66
2023-08-23T12:03:25.647Z,35.45
2023-08-23T12:06:28.993Z,35.80
2023-08-23T12:09:33.899Z,35.69
2023-08-23T12:12:40.459Z,35.17
2023-08-23T12:15:44.201Z,34.56
2023-08-23T12:18:50.063Z,34.86
2023-08-23T12:21:53.494Z,34.96
2023-08-23T12:24:56.556Z,34.16
2023-08-23T12:28:01.312Z,33.84
2023-08-23T12:31:05.862Z,33.59
2023-08-23T12:34:09.504Z,34.97
2023-08-23T12:37:14.352Z,34.99
2023-08-23T12:40:18.906Z,34.45
2023-08-23T12:43:22.346Z,34.63
2023-08-23T12:46:25.731Z,34.50
2023-08-23T12:49:28.929Z,34.83
2023-08-23T12:52:32.444Z,34.71
2023-08-23T12:55:35.523Z,35.01
2023-08-23T12:58:39.061Z,34.84
2023-08-23T13:01:42.476Z,34.81
2023-08-23T13:04:46.346Z,35.29
2023-08-23T13:07:49.963Z,35.64
2023-08-23T13:10:53.928Z,35.75
2023-08-23T13:13:59.513Z,35.27
2023-08-23T13:17:03.083Z,34.81
2023-08-23T13:20:07.868Z,34.79
2023-08-23T13:23:12.279Z,34.68
2023-08-23T13:26:16.869Z,35.11
2023-08-23T13:29:21.987Z,34.67
2023-08-23T13:32:27.971Z,34.87
2023-08-23T13:35:33.268Z,34.47
2023-08-23T13:38:36.718Z,34.16
2023-08-23T13:41:41.176Z,33.76
2023-08-23T13:44:44.661Z,33.74
2023-08-23T13:47:49.580Z,33.60
2023-08-23T13:50:54.998Z,33.39
2023-08-23T13:53:59.246Z,33.44
2023-08-23T13:57:03.966Z,33.68
2023-08-23T14:00:09.601Z,34.17
2023-08-23T14:03:12.788Z,34.12
2023-08-23T14:06:17.051Z,33.92
2023-08-23T14:09:20.201Z,33.75
2023-08-23T14:12:23.550Z,33.77
2023-08-23T14:15:26.865Z,33.56
2023-08-23T14:18:30.358Z,33.41
2023-08-23T14:21:33.572Z,33.06
2023-08-23T14:24:37.180Z,33.02
2023-08-23T14:27:41.093Z,32.75
2023-08-23T14:30:45.703Z,32.59
2023-08-23T14:33:49.479Z,32.59
2023-08-23T14:36:53.076Z,32.64
2023-08-23T14:39:56.401Z,32.73
2023-08-23T14:42:59.840Z,32.56
2023-08-23T14:46:02.891Z,32.44
2023-08-23T14:49:06.385Z,32.38
2023-08-23T14:52:10.041Z,32.34
2023-08-23T14:55:13.342Z,32.22
2023-08-23T14:58:16.593Z,32.04
2023-08-23T15:01:20.093Z,31.84
2023-08-23T15:04:23.364Z,31.85
2023-08-23T15:07:26.856Z,31.86
2023-08-23T15:10:31.005Z,31.76
2023-08-23T15:13:34.518Z,31.82
2023-08-23T15:16:37.706Z,31.62
2023-08-23T15:19:43.065Z,31.40
2023-08-23T15:22:46.212Z,31.17
2023-08-23T15:25:50.202Z,31.04
2023-08-23T15:28:57.086Z,30.93
2023-08-23T15:32:01.437Z,30.81
2023-08-23T15:35:06.092Z,30.79
2023-08-23T15:38:10.189Z,30.81
2023-08-23T15:41:13.315Z,30.72
2023-08-23T15:44:17.216Z,30.63
2023-08-23T15:47:21.319Z,30.57
2023-08-23T15:50:24.897Z,30.47
2023-08-23T15:53:28.148Z,30.40
2023-08-23T15:56:31.678Z,30.39
2023-08-23T15:59:36.330Z,30.47
2023-08-23T16:02:40.118Z,30.66
2023-08-23T16:05:43.724Z,30.77
2023-08-23T16:08:46.951Z,30.80
2023-08-23T16:11:50.496Z,30.76
2023-08-23T16:14:53.693Z,30.73
2023-08-23T16:17:58.431Z,30.72
2023-08-23T16:21:01.764Z,30.72
2023-08-23T16:24:06.768Z,30.65
2023-08-23T16:27:11.224Z,30.52
2023-08-23T16:30:14.986Z,30.45
2023-08-23T16:33:20.829Z,30.29
2023-08-23T16:36:27.700Z,30.16
2023-08-23T16:39:33.773Z,30.11
2023-08-23T16:42:43.018Z,29.94
2023-08-23T16:45:47.796Z,29.77
2023-08-23T16:48:52.894Z,29.68
2023-08-23T16:51:56.689Z,29.51
2023-08-23T16:55:01.494Z,29.44
2023-08-23T16:58:04.938Z,29.27
2023-08-23T17:01:09.689Z,29.16
2023-08-23T17:04:13.944Z,28.99
2023-08-23T17:07:18.023Z,28.85
2023-08-23T17:10:23.749Z,28.64
2023-08-23T17:13:28.229Z,28.46
2023-08-23T17:16:33.123Z,28.31
2023-08-23T17:19:41.213Z,28.20
2023-08-23T17:22:47.755Z,28.14
2023-08-23T17:25:52.578Z,28.07
2023-08-23T17:28:56.158Z,27.92
2023-08-23T17:32:00.557Z,27.68
2023-08-23T17:35:06.356Z,27.47
2023-08-23T17:38:11.216Z,27.25
2023-08-23T17:41:14.865Z,27.02
2023-08-23T17:44:20.754Z,26.82
2023-08-23T17:47:24.780Z,26.62
2023-08-23T17:50:29.196Z,26.37
2023-08-23T17:53:33.644Z,26.13
2023-08-23T17:56:38.080Z,25.91
2023-08-23T17:59:41.396Z,25.79
2023-08-23T18:02:45.645Z,25.62
2023-08-23T18:05:49.581Z,25.52
2023-08-23T18:08:53.753Z,25.47
2023-08-23T18:12:04.914Z,25.39
2023-08-23T18:15:17.365Z,25.22
2023-08-23T18:18:21.266Z,25.15
2023-08-23T18:21:27.355Z,24.88
2023-08-23T18:24:32.429Z,25.03
2023-08-23T18:27:55.217Z,24.99
2023-08-23T18:31:04.277Z,24.99
2023-08-23T18:34:13.310Z,24.99
2023-08-23T18:37:23.092Z,25.14
2023-08-23T18:40:28.415Z,25.26
2023-08-23T18:44:01.010Z,25.26
2023-08-23T18:47:13.237Z,25.26
2023-08-23T18:50:49.327Z,25.59
2023-08-23T18:53:57.941Z,25.47
2023-08-23T18:57:06.135Z,25.44
2023-08-23T19:00:13.276Z,25.36
2023-08-23T19:03:33.593Z,25.30
2023-08-23T19:06:38.382Z,24.97
2023-08-23T19:09:48.955Z,25.01
2023-08-23T19:12:53.186Z,24.73
2023-08-23T19:16:01.864Z,24.65
2023-08-23T19:19:15.610Z,24.44
2023-08-23T19:22:34.172Z,24.36
2023-08-23T19:25:42.637Z,24.38
2023-08-23T19:28:49.909Z,24.14
2023-08-23T19:31:59.417Z,24.14
2023-08-23T19:35:05.195Z,24.02
2023-08-23T19:38:09.984Z,23.93
2023-08-23T19:41:14.133Z,24.09
2023-08-23T19:44:21.280Z,24.00
2023-08-23T19:47:39.910Z,23.99
2023-08-23T19:51:02.515Z,24.02
2023-08-23T19:54:14.606Z,23.89
2023-08-23T19:57:38.397Z,23.64
2023-08-23T20:00:47.146Z,23.58
2023-08-23T20:03:55.277Z,23.49
2023-08-23T20:07:02.459Z,23.42
2023-08-23T20:10:16.618Z,23.30
2023-08-23T20:13:27.032Z,23.20
2023-08-23T20:16:41.185Z,23.15
2023-08-23T20:19:56.297Z,23.16
2023-08-23T20:23:13.534Z,23.12
2023-08-23T20:26:30.820Z,23.06
2023-08-23T20:30:07.962Z,23.09
2023-08-23T20:38:40.432Z,23.22
2023-08-23T20:42:08.485Z,23.20
2023-08-23T20:46:24.242Z,23.16
2023-08-23T20:50:40.335Z,22.78
2023-08-23T21:16:12.941Z,22.38
2023-08-23T21:19:30.576Z,22.25
2023-08-23T21:23:01.201Z,22.15
2023-08-23T21:29:23.843Z,21.96
2023-08-23T21:32:47.690Z,21.75
2023-08-23T21:35:54.285Z,21.69
2023-08-23T21:38:57.318Z,21.96
2023-08-23T21:42:00.888Z,21.98
2023-08-23T21:45:04.695Z,21.89
2023-08-23T21:48:08.084Z,21.72
2023-08-23T21:51:11.493Z,21.73
2023-08-23T21:54:14.978Z,21.69
2023-08-23T21:57:18.062Z,21.59
2023-08-23T22:00:21.903Z,21.49
2023-08-23T22:03:35.643Z,21.41
2023-08-23T22:06:38.861Z,21.36
2023-08-23T22:09:42.305Z,21.30
2023-08-23T22:12:45.731Z,21.25
2023-08-23T22:15:49.977Z,21.19
2023-08-23T22:18:55.139Z,21.14
2023-08-23T22:21:58.378Z,21.13
2023-08-23T22:25:02.521Z,21.09
2023-08-23T22:28:05.810Z,21.07
2023-08-23T22:31:10.422Z,21.02
2023-08-23T22:34:13.967Z,20.96
2023-08-23T22:37:17.048Z,20.90
2023-08-23T22:40:20.701Z,20.86
2023-08-23T22:43:24.187Z,20.82
2023-08-23T22:46:32.747Z,20.74
2023-08-23T22:49:36.187Z,20.65
2023-08-23T22:52:39.866Z,20.61
2023-08-23T22:55:42.903Z,20.63
2023-08-23T22:58:46.310Z,20.58
2023-08-23T23:01:49.483Z,20.51
2023-08-23T23:04:53.328Z,20.48
2023-08-23T23:07:56.416Z,20.40
2023-08-23T23:11:06.783Z,20.35
2023-08-23T23:14:10.429Z,20.25
2023-08-23T23:17:13.733Z,20.28
2023-08-23T23:20:17.558Z,20.24
2023-08-23T23:23:20.946Z,20.17
2023-08-23T23:26:24.135Z,20.16
2023-08-23T23:29:28.753Z,20.06
2023-08-23T23:32:32.118Z,20.07
2023-08-23T23:35:36.481Z,20.01
2023-08-23T23:38:44.065Z,19.96
2023-08-23T23:41:47.629Z,19.95
2023-08-23T23:44:50.785Z,19.93
2023-08-23T23:47:54.164Z,19.90
2023-08-23T23:50:57.342Z,19.87
2023-08-23T23:54:01.217Z,19.87
2023-08-23T23:57:04.295Z,19.82
